Fort Worth - NOAA's Hourly Summary for Tuesday, March 14, 2017
Hour Temp
(f)
RH
(%)
Solar Rad.
(MJ/m2)
Rainfall
(in)
Wind
(mph)
3/14/2017 12:00 AM 44 44 0 0 7.87
3/14/2017 1:00 AM 43 47 0 0 5.61
3/14/2017 2:00 AM 42 51 0 0 2.86
3/14/2017 3:00 AM 40 56 0 0 2.96
3/14/2017 4:00 AM 40 59 0 0 3.1
3/14/2017 5:00 AM 39 60 0 0 1.75
3/14/2017 6:00 AM 39 63 0 0 3.54
3/14/2017 7:00 AM 38 65 0.01 0 2.97
3/14/2017 8:00 AM 40 64 0.31 0 3.38
3/14/2017 9:00 AM 44 56 0.97 0 4.11
3/14/2017 10:00 AM 47 48 1.66 0 5
3/14/2017 11:00 AM 51 44 2.34 0 4.34
3/14/2017 12:00 PM 54 40 2.73 0 3.72
3/14/2017 1:00 PM 56 37 2.94 0 3.32
3/14/2017 2:00 PM 59 35 2.83 0 5.32
3/14/2017 3:00 PM 61 32 2.58 0 5.13
3/14/2017 4:00 PM 63 32 1.88 0 4.29
3/14/2017 5:00 PM 64 33 1.47 0 6.5
3/14/2017 6:00 PM 64 34 0.73 0 5.29
3/14/2017 7:00 PM 62 37 0.12 0 8.71
3/14/2017 8:00 PM 59 42 0 0 6.84
3/14/2017 9:00 PM 58 44 0 0 7.16
3/14/2017 10:00 PM 56 44 0 0 8.18
3/14/2017 11:00 PM 55 46 0 0 6.7
Data Summary 50 46 20.57 0.00 4.94